sensor_id;sensor_type;location;lat;lon;timestamp;P1;durP1;ratioP1;P2;durP2;ratioP2
51465;SDS011;37542;50.164;9.086;2022-08-19T00:00:25;8.88;;;7.55;;
51465;SDS011;37542;50.164;9.086;2022-08-19T00:04:11;12.23;;;8.65;;
51465;SDS011;37542;50.164;9.086;2022-08-19T00:07:54;9.18;;;8.10;;
51465;SDS011;37542;50.164;9.086;2022-08-19T00:11:35;10.35;;;8.52;;
51465;SDS011;37542;50.164;9.086;2022-08-19T00:15:18;9.90;;;7.38;;
51465;SDS011;37542;50.164;9.086;2022-08-19T00:19:01;8.75;;;7.53;;
51465;SDS011;37542;50.164;9.086;2022-08-19T00:22:43;8.07;;;6.80;;
51465;SDS011;37542;50.164;9.086;2022-08-19T00:26:26;7.43;;;6.70;;
51465;SDS011;37542;50.164;9.086;2022-08-19T00:30:08;9.52;;;8.48;;
51465;SDS011;37542;50.164;9.086;2022-08-19T00:33:50;9.50;;;8.40;;
51465;SDS011;37542;50.164;9.086;2022-08-19T00:37:31;9.27;;;7.90;;
51465;SDS011;37542;50.164;9.086;2022-08-19T00:41:14;9.27;;;8.30;;
51465;SDS011;37542;50.164;9.086;2022-08-19T00:45:00;10.60;;;8.35;;
51465;SDS011;37542;50.164;9.086;2022-08-19T00:48:41;9.40;;;8.13;;
51465;SDS011;37542;50.164;9.086;2022-08-19T00:52:31;9.85;;;8.48;;
51465;SDS011;37542;50.164;9.086;2022-08-19T00:56:16;8.82;;;7.90;;
51465;SDS011;37542;50.164;9.086;2022-08-19T00:59:58;8.07;;;7.25;;
51465;SDS011;37542;50.164;9.086;2022-08-19T01:03:41;10.80;;;8.70;;
51465;SDS011;37542;50.164;9.086;2022-08-19T01:07:22;9.52;;;8.15;;
51465;SDS011;37542;50.164;9.086;2022-08-19T01:11:03;8.93;;;8.00;;
51465;SDS011;37542;50.164;9.086;2022-08-19T01:14:44;11.15;;;8.50;;
51465;SDS011;37542;50.164;9.086;2022-08-19T01:18:27;10.13;;;8.90;;
51465;SDS011;37542;50.164;9.086;2022-08-19T01:26:03;8.55;;;7.28;;
51465;SDS011;37542;50.164;9.086;2022-08-19T01:29:45;11.10;;;8.95;;
51465;SDS011;37542;50.164;9.086;2022-08-19T01:33:26;11.68;;;7.97;;
51465;SDS011;37542;50.164;9.086;2022-08-19T01:37:10;10.95;;;8.35;;
51465;SDS011;37542;50.164;9.086;2022-08-19T01:40:52;10.80;;;9.43;;
51465;SDS011;37542;50.164;9.086;2022-08-19T01:44:33;10.32;;;8.55;;
51465;SDS011;37542;50.164;9.086;2022-08-19T01:48:14;11.25;;;9.05;;
51465;SDS011;37542;50.164;9.086;2022-08-19T01:51:55;9.80;;;8.45;;
51465;SDS011;37542;50.164;9.086;2022-08-19T01:55:38;14.65;;;9.48;;
51465;SDS011;37542;50.164;9.086;2022-08-19T01:59:22;12.50;;;9.43;;
51465;SDS011;37542;50.164;9.086;2022-08-19T02:03:04;11.13;;;8.50;;
51465;SDS011;37542;50.164;9.086;2022-08-19T02:06:46;11.10;;;9.05;;
51465;SDS011;37542;50.164;9.086;2022-08-19T02:10:28;11.77;;;9.27;;
51465;SDS011;37542;50.164;9.086;2022-08-19T02:14:08;10.80;;;8.32;;
51465;SDS011;37542;50.164;9.086;2022-08-19T02:17:49;10.82;;;9.45;;
51465;SDS011;37542;50.164;9.086;2022-08-19T02:21:30;11.40;;;8.88;;
51465;SDS011;37542;50.164;9.086;2022-08-19T02:25:12;10.00;;;8.90;;
51465;SDS011;37542;50.164;9.086;2022-08-19T02:28:55;12.02;;;9.48;;
51465;SDS011;37542;50.164;9.086;2022-08-19T02:32:36;10.05;;;8.48;;
51465;SDS011;37542;50.164;9.086;2022-08-19T02:36:17;10.73;;;7.68;;
51465;SDS011;37542;50.164;9.086;2022-08-19T02:39:58;10.20;;;8.48;;
51465;SDS011;37542;50.164;9.086;2022-08-19T02:43:39;12.02;;;8.85;;
51465;SDS011;37542;50.164;9.086;2022-08-19T02:47:20;10.88;;;8.38;;
51465;SDS011;37542;50.164;9.086;2022-08-19T02:51:01;11.60;;;8.10;;
51465;SDS011;37542;50.164;9.086;2022-08-19T02:54:41;8.88;;;7.88;;
51465;SDS011;37542;50.164;9.086;2022-08-19T02:58:23;8.75;;;7.15;;
51465;SDS011;37542;50.164;9.086;2022-08-19T03:02:04;8.88;;;7.20;;
51465;SDS011;37542;50.164;9.086;2022-08-19T03:05:45;10.82;;;8.55;;
51465;SDS011;37542;50.164;9.086;2022-08-19T03:09:26;10.48;;;8.93;;
51465;SDS011;37542;50.164;9.086;2022-08-19T03:13:07;9.63;;;8.40;;
51465;SDS011;37542;50.164;9.086;2022-08-19T03:16:49;9.57;;;8.52;;
51465;SDS011;37542;50.164;9.086;2022-08-19T03:20:32;8.07;;;7.18;;
51465;SDS011;37542;50.164;9.086;2022-08-19T03:24:13;9.93;;;8.00;;
51465;SDS011;37542;50.164;9.086;2022-08-19T03:27:55;8.48;;;7.18;;
51465;SDS011;37542;50.164;9.086;2022-08-19T03:31:37;9.95;;;8.77;;
51465;SDS011;37542;50.164;9.086;2022-08-19T03:35:20;9.50;;;8.40;;
51465;SDS011;37542;50.164;9.086;2022-08-19T03:39:01;10.52;;;8.23;;
51465;SDS011;37542;50.164;9.086;2022-08-19T03:42:42;10.65;;;8.68;;
51465;SDS011;37542;50.164;9.086;2022-08-19T03:46:24;7.90;;;7.03;;
51465;SDS011;37542;50.164;9.086;2022-08-19T03:50:08;8.38;;;6.68;;
51465;SDS011;37542;50.164;9.086;2022-08-19T03:53:49;8.77;;;7.40;;
51465;SDS011;37542;50.164;9.086;2022-08-19T03:57:32;9.00;;;7.20;;
51465;SDS011;37542;50.164;9.086;2022-08-19T04:01:15;9.35;;;8.05;;
51465;SDS011;37542;50.164;9.086;2022-08-19T04:04:59;11.97;;;8.33;;
51465;SDS011;37542;50.164;9.086;2022-08-19T04:08:41;9.40;;;7.43;;
51465;SDS011;37542;50.164;9.086;2022-08-19T04:12:23;9.13;;;8.00;;
51465;SDS011;37542;50.164;9.086;2022-08-19T04:16:04;12.27;;;8.18;;
51465;SDS011;37542;50.164;9.086;2022-08-19T04:19:46;8.88;;;7.10;;
51465;SDS011;37542;50.164;9.086;2022-08-19T04:23:27;6.97;;;6.15;;
51465;SDS011;37542;50.164;9.086;2022-08-19T04:27:11;8.73;;;6.78;;
51465;SDS011;37542;50.164;9.086;2022-08-19T04:30:52;8.52;;;6.82;;
51465;SDS011;37542;50.164;9.086;2022-08-19T04:34:35;8.95;;;7.43;;
51465;SDS011;37542;50.164;9.086;2022-08-19T04:38:17;9.63;;;8.02;;
51465;SDS011;37542;50.164;9.086;2022-08-19T04:42:04;9.73;;;7.30;;
51465;SDS011;37542;50.164;9.086;2022-08-19T04:46:05;9.85;;;7.88;;
51465;SDS011;37542;50.164;9.086;2022-08-19T04:49:51;12.05;;;7.45;;
51465;SDS011;37542;50.164;9.086;2022-08-19T04:53:33;9.68;;;7.40;;
51465;SDS011;37542;50.164;9.086;2022-08-19T04:57:16;11.07;;;8.25;;
51465;SDS011;37542;50.164;9.086;2022-08-19T05:00:57;10.45;;;8.30;;
51465;SDS011;37542;50.164;9.086;2022-08-19T05:04:40;10.45;;;8.65;;
51465;SDS011;37542;50.164;9.086;2022-08-19T05:08:21;10.20;;;7.72;;
51465;SDS011;37542;50.164;9.086;2022-08-19T05:12:02;8.27;;;7.13;;
51465;SDS011;37542;50.164;9.086;2022-08-19T05:15:43;11.00;;;7.88;;
51465;SDS011;37542;50.164;9.086;2022-08-19T05:19:33;7.72;;;6.20;;
51465;SDS011;37542;50.164;9.086;2022-08-19T05:23:32;8.73;;;7.22;;
51465;SDS011;37542;50.164;9.086;2022-08-19T05:27:12;9.18;;;6.78;;
51465;SDS011;37542;50.164;9.086;2022-08-19T05:30:53;12.00;;;7.40;;
51465;SDS011;37542;50.164;9.086;2022-08-19T05:34:35;10.98;;;7.18;;
51465;SDS011;37542;50.164;9.086;2022-08-19T05:38:18;10.45;;;8.13;;
51465;SDS011;37542;50.164;9.086;2022-08-19T05:42:00;9.15;;;6.10;;
51465;SDS011;37542;50.164;9.086;2022-08-19T05:45:47;8.15;;;6.95;;
51465;SDS011;37542;50.164;9.086;2022-08-19T05:49:30;8.27;;;6.65;;
51465;SDS011;37542;50.164;9.086;2022-08-19T05:53:13;7.78;;;6.85;;
51465;SDS011;37542;50.164;9.086;2022-08-19T05:56:56;10.52;;;7.35;;
51465;SDS011;37542;50.164;9.086;2022-08-19T06:00:37;9.10;;;6.57;;
51465;SDS011;37542;50.164;9.086;2022-08-19T06:04:18;7.80;;;7.00;;
51465;SDS011;37542;50.164;9.086;2022-08-19T06:08:00;8.00;;;6.32;;
51465;SDS011;37542;50.164;9.086;2022-08-19T06:11:44;7.25;;;6.40;;
51465;SDS011;37542;50.164;9.086;2022-08-19T06:15:34;7.40;;;5.45;;
51465;SDS011;37542;50.164;9.086;2022-08-19T06:19:16;8.48;;;6.28;;
51465;SDS011;37542;50.164;9.086;2022-08-19T06:22:59;10.48;;;6.55;;
51465;SDS011;37542;50.164;9.086;2022-08-19T06:26:40;7.47;;;6.47;;
51465;SDS011;37542;50.164;9.086;2022-08-19T06:30:24;8.57;;;6.90;;
51465;SDS011;37542;50.164;9.086;2022-08-19T06:34:06;10.18;;;6.43;;
51465;SDS011;37542;50.164;9.086;2022-08-19T06:37:46;7.40;;;6.28;;
51465;SDS011;37542;50.164;9.086;2022-08-19T06:41:28;8.77;;;6.07;;
51465;SDS011;37542;50.164;9.086;2022-08-19T06:45:10;12.13;;;6.22;;
51465;SDS011;37542;50.164;9.086;2022-08-19T06:48:52;6.93;;;5.53;;
51465;SDS011;37542;50.164;9.086;2022-08-19T06:52:34;11.85;;;6.60;;
51465;SDS011;37542;50.164;9.086;2022-08-19T06:56:16;6.40;;;5.47;;
51465;SDS011;37542;50.164;9.086;2022-08-19T07:00:02;7.30;;;6.10;;
51465;SDS011;37542;50.164;9.086;2022-08-19T07:03:54;7.50;;;5.82;;
51465;SDS011;37542;50.164;9.086;2022-08-19T07:07:48;8.75;;;5.90;;
51465;SDS011;37542;50.164;9.086;2022-08-19T07:11:29;9.73;;;5.95;;
51465;SDS011;37542;50.164;9.086;2022-08-19T07:15:12;7.13;;;5.13;;
51465;SDS011;37542;50.164;9.086;2022-08-19T07:19:08;7.65;;;4.90;;
51465;SDS011;37542;50.164;9.086;2022-08-19T07:23:06;7.90;;;5.72;;
51465;SDS011;37542;50.164;9.086;2022-08-19T07:31:50;7.70;;;5.57;;
51465;SDS011;37542;50.164;9.086;2022-08-19T07:35:34;9.80;;;5.53;;
51465;SDS011;37542;50.164;9.086;2022-08-19T07:39:20;6.82;;;5.22;;
51465;SDS011;37542;50.164;9.086;2022-08-19T07:43:05;9.05;;;6.07;;
51465;SDS011;37542;50.164;9.086;2022-08-19T07:46:48;7.28;;;5.57;;
51465;SDS011;37542;50.164;9.086;2022-08-19T07:50:38;8.95;;;5.40;;
51465;SDS011;37542;50.164;9.086;2022-08-19T07:54:39;6.60;;;5.28;;
51465;SDS011;37542;50.164;9.086;2022-08-19T07:58:33;5.93;;;5.13;;
51465;SDS011;37542;50.164;9.086;2022-08-19T08:02:17;6.85;;;5.70;;
51465;SDS011;37542;50.164;9.086;2022-08-19T08:05:58;9.27;;;5.97;;
51465;SDS011;37542;50.164;9.086;2022-08-19T08:09:57;5.97;;;4.68;;
51465;SDS011;37542;50.164;9.086;2022-08-19T08:23:14;7.35;;;5.47;;
51465;SDS011;37542;50.164;9.086;2022-08-19T08:27:08;6.20;;;5.13;;
51465;SDS011;37542;50.164;9.086;2022-08-19T08:31:07;6.00;;;4.22;;
51465;SDS011;37542;50.164;9.086;2022-08-19T08:35:05;6.47;;;4.68;;
51465;SDS011;37542;50.164;9.086;2022-08-19T08:39:49;5.53;;;4.45;;
51465;SDS011;37542;50.164;9.086;2022-08-19T08:43:34;8.07;;;4.50;;
51465;SDS011;37542;50.164;9.086;2022-08-19T08:47:47;4.77;;;3.90;;
51465;SDS011;37542;50.164;9.086;2022-08-19T09:03:49;4.65;;;4.07;;
51465;SDS011;37542;50.164;9.086;2022-08-19T09:07:52;5.30;;;3.85;;
51465;SDS011;37542;50.164;9.086;2022-08-19T09:12:53;5.68;;;3.80;;
51465;SDS011;37542;50.164;9.086;2022-08-19T09:16:41;5.90;;;4.07;;
51465;SDS011;37542;50.164;9.086;2022-08-19T09:21:00;5.88;;;3.38;;
51465;SDS011;37542;50.164;9.086;2022-08-19T09:34:34;3.63;;;2.75;;
51465;SDS011;37542;50.164;9.086;2022-08-19T09:38:21;3.47;;;2.72;;
51465;SDS011;37542;50.164;9.086;2022-08-19T09:42:14;4.45;;;3.03;;
51465;SDS011;37542;50.164;9.086;2022-08-19T09:51:12;4.22;;;3.08;;
51465;SDS011;37542;50.164;9.086;2022-08-19T09:56:31;3.58;;;2.50;;
51465;SDS011;37542;50.164;9.086;2022-08-19T10:00:13;2.92;;;2.38;;
51465;SDS011;37542;50.164;9.086;2022-08-19T10:04:15;3.08;;;2.30;;
51465;SDS011;37542;50.164;9.086;2022-08-19T10:07:55;3.35;;;2.28;;
51465;SDS011;37542;50.164;9.086;2022-08-19T10:11:39;2.75;;;2.15;;
51465;SDS011;37542;50.164;9.086;2022-08-19T10:19:21;3.97;;;2.10;;
51465;SDS011;37542;50.164;9.086;2022-08-19T10:23:05;2.85;;;2.30;;
51465;SDS011;37542;50.164;9.086;2022-08-19T10:26:58;3.67;;;2.33;;
51465;SDS011;37542;50.164;9.086;2022-08-19T10:30:46;3.25;;;2.30;;
51465;SDS011;37542;50.164;9.086;2022-08-19T10:34:28;3.43;;;2.53;;
51465;SDS011;37542;50.164;9.086;2022-08-19T10:38:10;2.97;;;2.40;;
51465;SDS011;37542;50.164;9.086;2022-08-19T10:41:51;4.47;;;2.67;;
51465;SDS011;37542;50.164;9.086;2022-08-19T10:45:32;3.47;;;2.70;;
51465;SDS011;37542;50.164;9.086;2022-08-19T10:49:13;3.13;;;2.75;;
51465;SDS011;37542;50.164;9.086;2022-08-19T10:52:57;3.20;;;2.55;;
51465;SDS011;37542;50.164;9.086;2022-08-19T10:56:37;3.70;;;2.80;;
51465;SDS011;37542;50.164;9.086;2022-08-19T11:00:34;3.05;;;2.75;;
51465;SDS011;37542;50.164;9.086;2022-08-19T11:04:15;2.78;;;2.40;;
51465;SDS011;37542;50.164;9.086;2022-08-19T11:07:58;2.85;;;2.30;;
51465;SDS011;37542;50.164;9.086;2022-08-19T11:11:39;3.15;;;2.70;;
51465;SDS011;37542;50.164;9.086;2022-08-19T11:15:21;2.30;;;2.10;;
51465;SDS011;37542;50.164;9.086;2022-08-19T11:19:02;4.75;;;2.38;;
51465;SDS011;37542;50.164;9.086;2022-08-19T11:22:43;2.58;;;2.35;;
51465;SDS011;37542;50.164;9.086;2022-08-19T11:26:25;3.45;;;2.40;;
51465;SDS011;37542;50.164;9.086;2022-08-19T11:30:07;4.68;;;2.17;;
51465;SDS011;37542;50.164;9.086;2022-08-19T11:33:49;4.72;;;2.60;;
51465;SDS011;37542;50.164;9.086;2022-08-19T11:37:33;3.15;;;2.72;;
51465;SDS011;37542;50.164;9.086;2022-08-19T11:41:18;2.90;;;2.50;;
51465;SDS011;37542;50.164;9.086;2022-08-19T11:45:01;5.22;;;2.63;;
51465;SDS011;37542;50.164;9.086;2022-08-19T11:48:43;5.28;;;2.60;;
51465;SDS011;37542;50.164;9.086;2022-08-19T11:52:24;3.05;;;2.22;;
51465;SDS011;37542;50.164;9.086;2022-08-19T11:56:05;5.80;;;2.67;;
51465;SDS011;37542;50.164;9.086;2022-08-19T11:59:49;4.10;;;2.40;;
51465;SDS011;37542;50.164;9.086;2022-08-19T12:03:47;2.50;;;2.30;;
51465;SDS011;37542;50.164;9.086;2022-08-19T12:07:34;3.70;;;2.38;;
51465;SDS011;37542;50.164;9.086;2022-08-19T12:11:15;7.00;;;2.58;;
51465;SDS011;37542;50.164;9.086;2022-08-19T12:14:56;3.50;;;2.30;;
51465;SDS011;37542;50.164;9.086;2022-08-19T12:18:38;3.38;;;2.55;;
51465;SDS011;37542;50.164;9.086;2022-08-19T12:22:23;3.67;;;2.58;;
51465;SDS011;37542;50.164;9.086;2022-08-19T12:26:04;3.42;;;2.53;;
51465;SDS011;37542;50.164;9.086;2022-08-19T12:29:45;3.47;;;2.20;;
51465;SDS011;37542;50.164;9.086;2022-08-19T12:33:28;2.80;;;2.42;;
51465;SDS011;37542;50.164;9.086;2022-08-19T12:37:09;2.80;;;2.17;;
51465;SDS011;37542;50.164;9.086;2022-08-19T12:40:50;4.25;;;2.78;;
51465;SDS011;37542;50.164;9.086;2022-08-19T12:44:36;3.72;;;2.40;;
51465;SDS011;37542;50.164;9.086;2022-08-19T12:48:45;3.20;;;2.42;;
51465;SDS011;37542;50.164;9.086;2022-08-19T12:52:26;2.90;;;2.25;;
51465;SDS011;37542;50.164;9.086;2022-08-19T12:56:09;2.63;;;2.22;;
51465;SDS011;37542;50.164;9.086;2022-08-19T12:59:54;5.20;;;2.30;;
51465;SDS011;37542;50.164;9.086;2022-08-19T13:03:45;2.38;;;2.17;;
51465;SDS011;37542;50.164;9.086;2022-08-19T13:07:32;2.97;;;2.45;;
51465;SDS011;37542;50.164;9.086;2022-08-19T13:11:14;3.60;;;2.50;;
51465;SDS011;37542;50.164;9.086;2022-08-19T13:15:00;3.65;;;2.20;;
51465;SDS011;37542;50.164;9.086;2022-08-19T13:18:42;2.88;;;2.15;;
51465;SDS011;37542;50.164;9.086;2022-08-19T13:22:27;2.17;;;1.83;;
51465;SDS011;37542;50.164;9.086;2022-08-19T13:26:09;3.92;;;2.25;;
51465;SDS011;37542;50.164;9.086;2022-08-19T13:29:51;5.40;;;2.45;;
51465;SDS011;37542;50.164;9.086;2022-08-19T13:33:50;6.70;;;2.30;;
51465;SDS011;37542;50.164;9.086;2022-08-19T13:37:31;5.47;;;2.47;;
51465;SDS011;37542;50.164;9.086;2022-08-19T13:41:21;3.10;;;2.53;;
51465;SDS011;37542;50.164;9.086;2022-08-19T13:45:02;3.88;;;2.33;;
51465;SDS011;37542;50.164;9.086;2022-08-19T13:48:45;5.03;;;2.75;;
51465;SDS011;37542;50.164;9.086;2022-08-19T13:52:27;4.80;;;2.60;;
51465;SDS011;37542;50.164;9.086;2022-08-19T13:56:10;3.90;;;2.70;;
51465;SDS011;37542;50.164;9.086;2022-08-19T13:59:54;2.75;;;2.40;;
51465;SDS011;37542;50.164;9.086;2022-08-19T14:03:35;3.60;;;2.25;;
51465;SDS011;37542;50.164;9.086;2022-08-19T14:07:17;3.33;;;2.38;;
51465;SDS011;37542;50.164;9.086;2022-08-19T14:10:58;2.90;;;2.40;;
51465;SDS011;37542;50.164;9.086;2022-08-19T14:14:39;2.80;;;2.50;;
51465;SDS011;37542;50.164;9.086;2022-08-19T14:18:20;3.17;;;2.35;;
51465;SDS011;37542;50.164;9.086;2022-08-19T14:22:01;3.33;;;2.63;;
51465;SDS011;37542;50.164;9.086;2022-08-19T14:25:51;4.35;;;2.90;;
51465;SDS011;37542;50.164;9.086;2022-08-19T14:34:39;5.88;;;3.45;;
51465;SDS011;37542;50.164;9.086;2022-08-19T14:38:20;4.55;;;4.03;;
51465;SDS011;37542;50.164;9.086;2022-08-19T14:42:06;4.22;;;3.83;;
51465;SDS011;37542;50.164;9.086;2022-08-19T14:50:09;4.45;;;3.88;;
51465;SDS011;37542;50.164;9.086;2022-08-19T14:53:52;7.07;;;4.18;;
51465;SDS011;37542;50.164;9.086;2022-08-19T14:57:34;5.18;;;4.68;;
51465;SDS011;37542;50.164;9.086;2022-08-19T15:01:15;5.10;;;4.55;;
51465;SDS011;37542;50.164;9.086;2022-08-19T15:04:55;5.78;;;4.30;;
51465;SDS011;37542;50.164;9.086;2022-08-19T15:08:37;6.25;;;4.93;;
51465;SDS011;37542;50.164;9.086;2022-08-19T15:12:20;5.30;;;4.53;;
51465;SDS011;37542;50.164;9.086;2022-08-19T15:16:02;5.68;;;5.07;;
51465;SDS011;37542;50.164;9.086;2022-08-19T15:19:43;9.27;;;5.03;;
51465;SDS011;37542;50.164;9.086;2022-08-19T15:23:24;5.45;;;4.95;;
51465;SDS011;37542;50.164;9.086;2022-08-19T15:27:05;5.10;;;4.60;;
51465;SDS011;37542;50.164;9.086;2022-08-19T15:30:46;5.30;;;4.80;;
51465;SDS011;37542;50.164;9.086;2022-08-19T15:34:27;5.07;;;4.38;;
51465;SDS011;37542;50.164;9.086;2022-08-19T15:38:09;4.57;;;4.18;;
51465;SDS011;37542;50.164;9.086;2022-08-19T15:41:52;6.50;;;4.47;;
51465;SDS011;37542;50.164;9.086;2022-08-19T15:45:38;4.65;;;4.25;;
51465;SDS011;37542;50.164;9.086;2022-08-19T15:54:32;4.75;;;4.28;;
51465;SDS011;37542;50.164;9.086;2022-08-19T15:58:23;4.53;;;4.05;;
51465;SDS011;37542;50.164;9.086;2022-08-19T16:02:25;3.97;;;3.60;;
51465;SDS011;37542;50.164;9.086;2022-08-19T16:06:25;4.55;;;4.10;;
51465;SDS011;37542;50.164;9.086;2022-08-19T16:10:10;4.20;;;3.75;;
51465;SDS011;37542;50.164;9.086;2022-08-19T16:13:53;4.60;;;4.13;;
51465;SDS011;37542;50.164;9.086;2022-08-19T16:17:34;4.60;;;4.20;;
51465;SDS011;37542;50.164;9.086;2022-08-19T16:21:15;4.07;;;3.67;;
51465;SDS011;37542;50.164;9.086;2022-08-19T16:24:56;4.53;;;3.80;;
51465;SDS011;37542;50.164;9.086;2022-08-19T16:28:38;4.20;;;3.80;;
51465;SDS011;37542;50.164;9.086;2022-08-19T16:32:28;4.60;;;4.10;;
51465;SDS011;37542;50.164;9.086;2022-08-19T16:36:32;3.80;;;3.38;;
51465;SDS011;37542;50.164;9.086;2022-08-19T16:40:13;4.20;;;3.80;;
51465;SDS011;37542;50.164;9.086;2022-08-19T16:43:54;4.82;;;3.08;;
51465;SDS011;37542;50.164;9.086;2022-08-19T16:47:35;3.80;;;3.40;;
51465;SDS011;37542;50.164;9.086;2022-08-19T16:51:16;3.95;;;3.55;;
51465;SDS011;37542;50.164;9.086;2022-08-19T16:59:04;4.13;;;3.65;;
51465;SDS011;37542;50.164;9.086;2022-08-19T17:02:51;5.75;;;3.97;;
51465;SDS011;37542;50.164;9.086;2022-08-19T17:07:07;3.58;;;3.20;;
51465;SDS011;37542;50.164;9.086;2022-08-19T17:10:49;4.03;;;3.63;;
51465;SDS011;37542;50.164;9.086;2022-08-19T17:14:30;4.57;;;3.58;;
51465;SDS011;37542;50.164;9.086;2022-08-19T17:27:08;3.55;;;3.20;;
51465;SDS011;37542;50.164;9.086;2022-08-19T17:30:51;4.32;;;3.22;;
51465;SDS011;37542;50.164;9.086;2022-08-19T17:34:32;4.03;;;3.55;;
51465;SDS011;37542;50.164;9.086;2022-08-19T17:47:30;4.40;;;3.40;;
51465;SDS011;37542;50.164;9.086;2022-08-19T17:51:22;3.50;;;3.05;;
51465;SDS011;37542;50.164;9.086;2022-08-19T17:55:11;3.42;;;2.53;;
51465;SDS011;37542;50.164;9.086;2022-08-19T17:58:52;7.22;;;3.10;;
51465;SDS011;37542;50.164;9.086;2022-08-19T18:02:43;3.20;;;2.60;;
51465;SDS011;37542;50.164;9.086;2022-08-19T18:06:46;4.03;;;3.10;;
51465;SDS011;37542;50.164;9.086;2022-08-19T18:10:29;5.32;;;2.97;;
51465;SDS011;37542;50.164;9.086;2022-08-19T18:18:53;7.25;;;3.70;;
51465;SDS011;37542;50.164;9.086;2022-08-19T18:22:44;5.22;;;3.45;;
51465;SDS011;37542;50.164;9.086;2022-08-19T18:27:15;3.78;;;3.30;;
51465;SDS011;37542;50.164;9.086;2022-08-19T18:30:56;4.40;;;3.13;;
51465;SDS011;37542;50.164;9.086;2022-08-19T18:34:37;4.90;;;3.78;;
51465;SDS011;37542;50.164;9.086;2022-08-19T18:38:20;5.47;;;3.78;;
51465;SDS011;37542;50.164;9.086;2022-08-19T18:42:20;4.65;;;3.63;;
51465;SDS011;37542;50.164;9.086;2022-08-19T18:46:19;5.95;;;4.22;;
51465;SDS011;37542;50.164;9.086;2022-08-19T18:50:18;8.00;;;4.45;;
51465;SDS011;37542;50.164;9.086;2022-08-19T18:53:59;3.70;;;3.20;;
51465;SDS011;37542;50.164;9.086;2022-08-19T18:57:40;4.63;;;4.00;;
51465;SDS011;37542;50.164;9.086;2022-08-19T19:01:24;5.13;;;3.65;;
51465;SDS011;37542;50.164;9.086;2022-08-19T19:05:14;4.40;;;3.53;;
51465;SDS011;37542;50.164;9.086;2022-08-19T19:08:55;4.60;;;3.90;;
51465;SDS011;37542;50.164;9.086;2022-08-19T19:12:39;6.18;;;3.90;;
51465;SDS011;37542;50.164;9.086;2022-08-19T19:16:25;4.40;;;3.60;;
51465;SDS011;37542;50.164;9.086;2022-08-19T19:20:06;4.65;;;3.92;;
51465;SDS011;37542;50.164;9.086;2022-08-19T19:23:47;3.97;;;3.55;;
51465;SDS011;37542;50.164;9.086;2022-08-19T19:32:49;4.53;;;3.85;;
51465;SDS011;37542;50.164;9.086;2022-08-19T19:36:30;4.88;;;3.55;;
51465;SDS011;37542;50.164;9.086;2022-08-19T19:40:11;4.32;;;3.92;;
51465;SDS011;37542;50.164;9.086;2022-08-19T19:43:53;5.07;;;3.65;;
51465;SDS011;37542;50.164;9.086;2022-08-19T19:47:43;6.90;;;3.70;;
51465;SDS011;37542;50.164;9.086;2022-08-19T19:51:44;5.72;;;3.72;;
51465;SDS011;37542;50.164;9.086;2022-08-19T19:55:25;4.25;;;3.72;;
51465;SDS011;37542;50.164;9.086;2022-08-19T19:59:07;5.38;;;3.20;;
51465;SDS011;37542;50.164;9.086;2022-08-19T20:02:48;4.32;;;3.17;;
51465;SDS011;37542;50.164;9.086;2022-08-19T20:06:30;3.47;;;3.10;;
51465;SDS011;37542;50.164;9.086;2022-08-19T20:10:11;3.80;;;3.40;;
51465;SDS011;37542;50.164;9.086;2022-08-19T20:13:52;4.18;;;3.35;;
51465;SDS011;37542;50.164;9.086;2022-08-19T20:17:33;4.47;;;3.33;;
51465;SDS011;37542;50.164;9.086;2022-08-19T20:21:21;4.57;;;3.80;;
51465;SDS011;37542;50.164;9.086;2022-08-19T20:25:06;5.67;;;3.40;;
51465;SDS011;37542;50.164;9.086;2022-08-19T20:28:50;4.60;;;3.35;;
51465;SDS011;37542;50.164;9.086;2022-08-19T20:32:31;3.67;;;3.22;;
51465;SDS011;37542;50.164;9.086;2022-08-19T20:36:12;5.97;;;3.75;;
51465;SDS011;37542;50.164;9.086;2022-08-19T20:39:53;6.88;;;3.85;;
51465;SDS011;37542;50.164;9.086;2022-08-19T20:43:33;4.85;;;3.95;;
51465;SDS011;37542;50.164;9.086;2022-08-19T20:47:14;5.55;;;4.25;;
51465;SDS011;37542;50.164;9.086;2022-08-19T20:50:55;4.72;;;3.80;;
51465;SDS011;37542;50.164;9.086;2022-08-19T20:54:36;4.68;;;4.28;;
51465;SDS011;37542;50.164;9.086;2022-08-19T20:58:18;4.63;;;3.90;;
51465;SDS011;37542;50.164;9.086;2022-08-19T21:02:01;4.53;;;3.85;;
51465;SDS011;37542;50.164;9.086;2022-08-19T21:05:42;4.47;;;4.05;;
51465;SDS011;37542;50.164;9.086;2022-08-19T21:09:25;5.30;;;4.30;;
51465;SDS011;37542;50.164;9.086;2022-08-19T21:13:06;5.65;;;4.10;;
51465;SDS011;37542;50.164;9.086;2022-08-19T21:16:47;8.05;;;4.30;;
51465;SDS011;37542;50.164;9.086;2022-08-19T21:20:29;7.15;;;4.28;;
51465;SDS011;37542;50.164;9.086;2022-08-19T21:24:10;4.65;;;4.10;;
51465;SDS011;37542;50.164;9.086;2022-08-19T21:27:50;5.57;;;4.00;;
51465;SDS011;37542;50.164;9.086;2022-08-19T21:31:31;4.70;;;4.00;;
51465;SDS011;37542;50.164;9.086;2022-08-19T21:35:12;6.00;;;3.88;;
51465;SDS011;37542;50.164;9.086;2022-08-19T21:38:53;5.45;;;3.63;;
51465;SDS011;37542;50.164;9.086;2022-08-19T21:42:34;4.45;;;3.80;;
51465;SDS011;37542;50.164;9.086;2022-08-19T21:46:15;4.22;;;3.67;;
51465;SDS011;37542;50.164;9.086;2022-08-19T21:49:56;5.57;;;3.78;;
51465;SDS011;37542;50.164;9.086;2022-08-19T21:53:37;6.40;;;3.92;;
51465;SDS011;37542;50.164;9.086;2022-08-19T21:57:18;4.18;;;3.50;;
51465;SDS011;37542;50.164;9.086;2022-08-19T22:00:58;7.32;;;4.00;;
51465;SDS011;37542;50.164;9.086;2022-08-19T22:08:25;4.57;;;3.25;;
51465;SDS011;37542;50.164;9.086;2022-08-19T22:12:07;4.72;;;3.70;;
51465;SDS011;37542;50.164;9.086;2022-08-19T22:15:58;4.80;;;3.92;;
51465;SDS011;37542;50.164;9.086;2022-08-19T22:19:39;5.65;;;3.85;;
51465;SDS011;37542;50.164;9.086;2022-08-19T22:23:20;7.43;;;3.80;;
51465;SDS011;37542;50.164;9.086;2022-08-19T22:27:01;4.97;;;4.03;;
51465;SDS011;37542;50.164;9.086;2022-08-19T22:30:44;6.38;;;3.90;;
51465;SDS011;37542;50.164;9.086;2022-08-19T22:34:26;5.05;;;3.95;;
51465;SDS011;37542;50.164;9.086;2022-08-19T22:38:08;4.40;;;3.70;;
51465;SDS011;37542;50.164;9.086;2022-08-19T22:41:51;5.00;;;3.97;;
51465;SDS011;37542;50.164;9.086;2022-08-19T22:45:32;4.43;;;3.58;;
51465;SDS011;37542;50.164;9.086;2022-08-19T22:49:15;4.72;;;3.85;;
51465;SDS011;37542;50.164;9.086;2022-08-19T22:52:56;4.90;;;3.97;;
51465;SDS011;37542;50.164;9.086;2022-08-19T22:56:38;5.43;;;4.07;;
51465;SDS011;37542;50.164;9.086;2022-08-19T23:00:20;4.32;;;3.83;;
51465;SDS011;37542;50.164;9.086;2022-08-19T23:04:05;4.60;;;3.83;;
51465;SDS011;37542;50.164;9.086;2022-08-19T23:07:46;4.38;;;3.55;;
51465;SDS011;37542;50.164;9.086;2022-08-19T23:11:27;3.83;;;3.35;;
51465;SDS011;37542;50.164;9.086;2022-08-19T23:15:13;4.32;;;3.50;;
51465;SDS011;37542;50.164;9.086;2022-08-19T23:19:03;4.90;;;3.72;;
51465;SDS011;37542;50.164;9.086;2022-08-19T23:22:44;3.95;;;3.55;;
51465;SDS011;37542;50.164;9.086;2022-08-19T23:26:28;4.07;;;3.40;;
51465;SDS011;37542;50.164;9.086;2022-08-19T23:30:09;5.03;;;3.85;;
51465;SDS011;37542;50.164;9.086;2022-08-19T23:34:05;4.43;;;4.00;;
51465;SDS011;37542;50.164;9.086;2022-08-19T23:37:46;4.38;;;3.75;;
51465;SDS011;37542;50.164;9.086;2022-08-19T23:41:27;5.75;;;4.15;;
51465;SDS011;37542;50.164;9.086;2022-08-19T23:45:08;5.13;;;3.42;;
51465;SDS011;37542;50.164;9.086;2022-08-19T23:48:49;4.90;;;4.22;;
51465;SDS011;37542;50.164;9.086;2022-08-19T23:52:33;4.85;;;4.00;;
